createdAt,value
2019-02-27T00:00:48.586Z,9.00
2019-02-27T00:05:53.480Z,9.00
2019-02-27T00:10:58.456Z,9.10
2019-02-27T00:16:03.428Z,9.00
2019-02-27T00:21:10.941Z,8.90
2019-02-27T00:26:15.760Z,9.00
2019-02-27T00:31:20.978Z,9.00
2019-02-27T00:36:25.961Z,9.10
2019-02-27T00:41:31.194Z,8.90
2019-02-27T00:46:36.354Z,8.90
2019-02-27T00:51:44.666Z,8.80
2019-02-27T00:56:47.892Z,8.50
2019-02-27T01:01:53.329Z,8.50
2019-02-27T01:06:58.502Z,8.30
2019-02-27T01:12:03.521Z,8.40
2019-02-27T01:17:08.746Z,8.50
2019-02-27T01:22:13.638Z,8.30
2019-02-27T01:27:18.523Z,8.00
2019-02-27T01:32:23.782Z,7.60
2019-02-27T01:37:31.459Z,7.60
2019-02-27T01:42:35.249Z,7.70
2019-02-27T01:47:40.622Z,7.80
2019-02-27T01:52:45.519Z,7.90
2019-02-27T01:57:50.483Z,8.00
2019-02-27T02:02:55.513Z,8.00
2019-02-27T02:08:01.008Z,7.90
2019-02-27T02:13:36.717Z,8.10
2019-02-27T02:19:05.727Z,8.20
2019-02-27T02:24:58.755Z,8.20
2019-02-27T02:30:47.040Z,8.10
2019-02-27T02:36:29.282Z,7.60
2019-02-27T02:42:09.942Z,7.70
2019-02-27T02:47:59.048Z,8.00
2019-02-27T02:53:25.394Z,7.80
2019-02-27T02:58:47.200Z,7.90
2019-02-27T03:04:20.662Z,8.00
2019-02-27T03:10:12.022Z,8.00
2019-02-27T03:15:47.101Z,7.40
2019-02-27T03:21:05.853Z,7.40
2019-02-27T03:26:22.903Z,7.30
2019-02-27T03:32:07.121Z,7.30
2019-02-27T03:37:23.066Z,7.40
2019-02-27T03:42:46.640Z,7.60
2019-02-27T03:48:28.894Z,7.50
2019-02-27T03:54:05.534Z,7.70
2019-02-27T03:59:42.484Z,7.60
2019-02-27T04:05:07.234Z,7.60
2019-02-27T04:10:11.828Z,5.40
2019-02-27T04:15:18.153Z,6.40
2019-02-27T04:20:23.783Z,7.20
2019-02-27T04:25:31.444Z,7.90
2019-02-27T04:30:35.643Z,7.20
2019-02-27T04:35:41.052Z,6.40
2019-02-27T04:40:45.960Z,6.60
2019-02-27T04:45:51.059Z,6.80
2019-02-27T04:50:56.241Z,6.90
2019-02-27T04:56:01.444Z,6.90
2019-02-27T05:01:06.623Z,7.00
2019-02-27T05:06:11.970Z,7.20
2019-02-27T05:11:19.076Z,7.20
2019-02-27T05:16:24.351Z,7.20
2019-02-27T05:21:29.498Z,7.20
2019-02-27T05:26:34.440Z,7.20
2019-02-27T05:31:39.336Z,7.20
2019-02-27T05:36:44.218Z,6.90
2019-02-27T05:41:49.100Z,7.00
2019-02-27T05:46:54.606Z,6.60
2019-02-27T05:51:59.504Z,6.60
2019-02-27T05:57:04.759Z,6.00
2019-02-27T06:02:12.066Z,5.80
2019-02-27T06:07:19.043Z,5.50
2019-02-27T06:12:24.416Z,5.40
2019-02-27T06:17:29.258Z,5.20
2019-02-27T06:22:34.310Z,5.60
2019-02-27T06:27:39.460Z,6.20
2019-02-27T06:32:45.230Z,6.40
2019-02-27T06:37:51.347Z,6.40
2019-02-27T06:42:56.980Z,6.50
2019-02-27T06:48:02.219Z,6.40
2019-02-27T06:53:07.996Z,6.40
2019-02-27T06:58:14.802Z,6.60
2019-02-27T07:03:20.045Z,6.60
2019-02-27T07:08:25.426Z,6.60
2019-02-27T07:13:30.585Z,6.20
2019-02-27T07:18:36.504Z,5.90
2019-02-27T07:23:41.761Z,6.20
2019-02-27T07:28:46.957Z,6.40
2019-02-27T07:33:51.806Z,6.50
2019-02-27T07:38:57.484Z,6.50
2019-02-27T07:44:03.416Z,6.70
2019-02-27T07:49:08.611Z,6.90
2019-02-27T07:54:13.561Z,6.90
2019-02-27T07:59:18.669Z,7.10
2019-02-27T08:04:23.855Z,7.10
2019-02-27T08:09:30.252Z,7.30
2019-02-27T08:14:37.234Z,7.50
2019-02-27T08:19:42.895Z,7.70
2019-02-27T08:24:48.937Z,7.80
2019-02-27T08:29:53.847Z,8.10
2019-02-27T08:34:59.440Z,8.40
2019-02-27T08:40:04.819Z,8.70
2019-02-27T08:45:19.222Z,8.70
2019-02-27T08:50:17.861Z,9.00
2019-02-27T08:55:24.802Z,9.40
2019-02-27T09:00:30.695Z,9.70
2019-02-27T09:05:35.608Z,9.80
2019-02-27T09:10:40.494Z,10.00
2019-02-27T09:15:45.464Z,10.30
2019-02-27T09:20:53.285Z,10.80
2019-02-27T09:25:57.601Z,10.90
2019-02-27T09:31:04.310Z,11.20
2019-02-27T09:36:10.324Z,11.30
2019-02-27T09:41:16.142Z,11.50
2019-02-27T09:46:21.125Z,11.80
2019-02-27T09:51:26.097Z,12.00
2019-02-27T09:56:32.749Z,12.30
2019-02-27T10:01:37.829Z,12.30
2019-02-27T10:06:43.470Z,12.40
2019-02-27T10:11:48.510Z,12.50
2019-02-27T10:16:53.463Z,12.80
2019-02-27T10:21:58.365Z,13.00
2019-02-27T10:27:03.405Z,13.20
2019-02-27T10:32:08.948Z,13.40
2019-02-27T10:37:17.149Z,13.50
2019-02-27T10:42:21.045Z,13.50
2019-02-27T10:47:26.561Z,13.60
2019-02-27T10:52:31.518Z,13.80
2019-02-27T10:57:38.346Z,13.80
2019-02-27T11:02:45.138Z,13.90
2019-02-27T11:07:52.969Z,14.00
2019-02-27T11:12:57.546Z,14.20
2019-02-27T11:18:05.993Z,14.40
2019-02-27T11:23:10.888Z,14.40
2019-02-27T11:28:15.900Z,14.50
2019-02-27T11:33:25.770Z,14.60
2019-02-27T11:38:28.030Z,14.50
2019-02-27T11:43:32.989Z,14.90
2019-02-27T11:48:38.226Z,15.00
2019-02-27T11:53:43.570Z,15.20
2019-02-27T11:58:48.661Z,15.40
2019-02-27T12:03:53.961Z,15.70
2019-02-27T12:08:59.845Z,15.80
2019-02-27T12:14:06.536Z,15.80
2019-02-27T12:19:11.925Z,16.20
2019-02-27T12:24:21.206Z,16.40
2019-02-27T12:29:27.336Z,16.50
2019-02-27T12:34:34.004Z,16.50
2019-02-27T12:39:39.570Z,16.60
2019-02-27T12:44:44.700Z,16.70
2019-02-27T12:49:51.559Z,16.70
2019-02-27T12:54:59.207Z,16.80
2019-02-27T13:00:05.741Z,16.90
2019-02-27T13:05:11.753Z,16.90
2019-02-27T13:10:18.309Z,17.10
2019-02-27T13:15:23.920Z,17.10
2019-02-27T13:20:28.894Z,17.00
2019-02-27T13:25:33.872Z,17.00
2019-02-27T13:30:41.425Z,17.20
2019-02-27T13:35:45.701Z,17.20
2019-02-27T13:40:50.612Z,17.20
2019-02-27T13:45:55.581Z,17.20
2019-02-27T13:51:02.451Z,17.40
2019-02-27T13:56:07.239Z,17.40
2019-02-27T14:01:12.417Z,17.40
2019-02-27T14:06:17.221Z,17.40
2019-02-27T14:11:24.946Z,17.50
2019-02-27T14:16:34.250Z,17.50
2019-02-27T14:21:36.317Z,17.50
2019-02-27T14:26:41.577Z,17.60
2019-02-27T14:31:47.352Z,17.70
2019-02-27T14:36:52.596Z,17.70
2019-02-27T14:41:57.923Z,17.70
2019-02-27T14:47:03.360Z,17.70
2019-02-27T14:52:08.283Z,17.70
2019-02-27T14:57:16.102Z,17.60
2019-02-27T15:02:22.058Z,17.60
2019-02-27T15:07:26.433Z,17.50
2019-02-27T15:12:33.058Z,17.60
2019-02-27T15:17:38.033Z,17.60
2019-02-27T15:22:43.366Z,17.60
2019-02-27T15:27:48.268Z,17.60
2019-02-27T15:32:53.170Z,17.60
2019-02-27T15:37:58.432Z,17.50
2019-02-27T15:43:10.915Z,17.40
2019-02-27T15:48:10.817Z,17.40
2019-02-27T15:53:15.887Z,17.50
2019-02-27T15:58:21.402Z,17.40
2019-02-27T16:03:26.588Z,17.50
2019-02-27T16:08:31.826Z,17.40
2019-02-27T16:13:36.851Z,17.40
2019-02-27T16:18:42.061Z,17.30
2019-02-27T16:23:47.006Z,17.20
2019-02-27T16:28:51.947Z,17.20
2019-02-27T16:33:58.541Z,17.10
2019-02-27T16:39:07.464Z,17.00
2019-02-27T16:44:11.195Z,17.00
2019-02-27T16:49:16.549Z,16.60
2019-02-27T16:54:24.023Z,16.50
2019-02-27T16:59:28.047Z,16.40
2019-02-27T17:04:34.263Z,16.30
2019-02-27T17:09:41.057Z,16.20
2019-02-27T17:14:46.645Z,16.00
2019-02-27T17:19:53.092Z,15.90
2019-02-27T17:24:58.430Z,15.80
2019-02-27T17:30:03.414Z,15.70
2019-02-27T17:35:08.478Z,15.50
2019-02-27T17:40:14.162Z,15.30
2019-02-27T17:45:19.931Z,15.20
2019-02-27T17:55:29.488Z,14.80
2019-02-27T18:00:37.641Z,14.70
2019-02-27T18:05:42.866Z,14.60
2019-02-27T18:10:48.018Z,14.40
2019-02-27T18:15:53.450Z,14.30
2019-02-27T18:20:59.596Z,14.10
2019-02-27T18:26:05.495Z,14.10
2019-02-27T18:31:10.473Z,13.90
2019-02-27T18:36:15.365Z,13.80
2019-02-27T18:41:20.417Z,13.70
2019-02-27T18:46:25.534Z,13.70
2019-02-27T18:51:33.213Z,13.60
2019-02-27T18:56:40.377Z,13.60
2019-02-27T19:01:45.177Z,13.30
2019-02-27T19:06:51.058Z,13.30
2019-02-27T19:11:56.042Z,13.20
2019-02-27T19:17:01.038Z,13.10
2019-02-27T19:22:07.980Z,12.90
2019-02-27T19:27:15.471Z,12.80
2019-02-27T19:32:19.561Z,12.70
2019-02-27T19:37:24.451Z,12.70
2019-02-27T19:42:29.410Z,12.50
2019-02-27T19:47:34.417Z,12.50
2019-02-27T19:52:39.309Z,12.40
2019-02-27T19:57:44.621Z,12.30
2019-02-27T20:02:55.166Z,12.20
2019-02-27T20:07:56.490Z,12.10
2019-02-27T20:13:01.667Z,12.00
2019-02-27T20:18:08.301Z,12.00
2019-02-27T20:23:13.181Z,11.90
2019-02-27T20:28:18.412Z,11.90
2019-02-27T20:33:23.577Z,11.90
2019-02-27T20:38:29.065Z,11.80
2019-02-27T20:43:34.357Z,11.80
2019-02-27T20:48:39.681Z,11.70
2019-02-27T20:53:44.794Z,11.70
2019-02-27T20:58:51.988Z,11.60
2019-02-27T21:04:01.443Z,11.60
2019-02-27T21:09:04.309Z,11.60
2019-02-27T21:14:09.237Z,11.50
2019-02-27T21:19:14.206Z,11.50
2019-02-27T21:24:19.455Z,11.50
2019-02-27T21:29:24.411Z,11.50
2019-02-27T21:34:29.595Z,11.50
2019-02-27T21:39:34.500Z,11.50
2019-02-27T21:44:40.045Z,11.40
2019-02-27T21:49:44.957Z,11.40
2019-02-27T21:54:50.038Z,11.20
2019-02-27T21:59:55.209Z,11.20
2019-02-27T22:05:00.823Z,11.10
2019-02-27T22:10:06.849Z,11.10
2019-02-27T22:15:21.828Z,11.10
2019-02-27T22:20:25.989Z,11.00
2019-02-27T22:25:31.269Z,11.00
2019-02-27T22:30:36.296Z,11.00
2019-02-27T22:35:41.197Z,11.00
2019-02-27T22:40:46.108Z,10.90
2019-02-27T22:45:51.285Z,10.90
2019-02-27T22:50:56.257Z,10.90
2019-02-27T22:56:01.405Z,10.80
2019-02-27T23:01:29.110Z,10.80
2019-02-27T23:06:34.353Z,10.80
2019-02-27T23:11:39.776Z,10.80
2019-02-27T23:16:46.804Z,10.80
2019-02-27T23:21:51.932Z,10.80
2019-02-27T23:26:56.762Z,10.70
2019-02-27T23:32:01.937Z,10.70
2019-02-27T23:37:07.243Z,10.70
2019-02-27T23:42:12.382Z,10.60
2019-02-27T23:47:17.583Z,10.60
2019-02-27T23:52:23.142Z,10.60
2019-02-27T23:57:28.149Z,10.60
